Franklin, NJ (07416)

11:14 PM EDT on July 30, 2016 (GMT -0400)
KNJFRANK2 | | Change Station

Elev 571 ft 41.12 °N, 74.59 °W | Updated 14 minutes ago

Light Rain
Light Rain
68.8 °F
Feels Like 68.8 °F
N
0.0
Wind Variable Wind from North
Gusts 1.0 mph

Today
High -- | Low -- °F
--% Chance of Precip.
Yesterday
High -- | Low -- °F
Precip. -- in
Pressure 30.04 in
Visibility 10.0 miles
Clouds Mostly Cloudy 1400 ft
Overcast 2100 ft
Dew Point 68 °F
Humidity 96%
Rainfall 0.97 in
Snow Depth Not available.
5:52 AM 8:16 PM
Waning Crescent, 9% visible
METAR KFWN 310253Z AUTO 07003KT 10SM -RA BKN014 OVC021 21/21 A3005 RMK AO2 SLP172 P0001 60005 T02110206 58003
Pressure 30.04 in
Visibility 10.0 miles
Clouds Mostly Cloudy 1400 ft
Overcast 2100 ft
Dew Point 68 °F
Humidity 96%
Rainfall 0.97 in
Snow Depth Not available.
5:52 AM 8:16 PM
Waning Crescent, 9% visible
METAR KFWN 310253Z AUTO 07003KT 10SM -RA BKN014 OVC021 21/21 A3005 RMK AO2 SLP172 P0001 60005 T02110206 58003

10-Day Weather Forecast

Almanac

Astronomy

Jul. 30, 2016 Rise Set
Actual Time
Civil Twilight
Nautical Twilight
Astronomical Twilight
Moon
Length of Visible Light
Length of Day
Tomorrow will be .
, % of the Moon is Illuminated

Today's Extremes

State Highs State Lows

Community

WunderPhotos

Upload Photos

1,928,729 photos uploaded!

WunderBlog® & News

Nearby

Air Quality

  Air Quality AQ Index Pollutant
Not available.

Snow Depth

Station Depth Elevation

Earthquake Activity

City Distance Mag. Time & Date
Minimum magnitude displayed is 2.5.

Coastal Water Temperatures

Place Temperature

Stations

Nearby Weather Stations

Station Location Temp. Windchill Dew Point Humidity Wind Precip. Elev Updated Type
                   

Watches & Warnings

There are currently no watches in effect.